sensor_id;sensor_type;location;lat;lon;timestamp;P1;durP1;ratioP1;P2;durP2;ratioP2
61356;SDS011;47227;46.752;23.576;2023-05-02T00:00:56;7.80;;;3.50;;
61356;SDS011;47227;46.752;23.576;2023-05-02T00:03:24;4.10;;;3.60;;
61356;SDS011;47227;46.752;23.576;2023-05-02T00:05:50;4.60;;;3.80;;
61356;SDS011;47227;46.752;23.576;2023-05-02T00:08:17;5.50;;;4.00;;
61356;SDS011;47227;46.752;23.576;2023-05-02T00:10:44;7.20;;;4.60;;
61356;SDS011;47227;46.752;23.576;2023-05-02T00:13:10;5.00;;;4.60;;
61356;SDS011;47227;46.752;23.576;2023-05-02T00:15:37;6.70;;;5.20;;
61356;SDS011;47227;46.752;23.576;2023-05-02T00:18:04;8.10;;;5.50;;
61356;SDS011;47227;46.752;23.576;2023-05-02T00:20:30;8.60;;;7.50;;
61356;SDS011;47227;46.752;23.576;2023-05-02T00:24:12;10.70;;;8.70;;
61356;SDS011;47227;46.752;23.576;2023-05-02T00:27:47;16.00;;;9.20;;
61356;SDS011;47227;46.752;23.576;2023-05-02T00:31:31;10.00;;;7.60;;
61356;SDS011;47227;46.752;23.576;2023-05-02T00:35:25;7.30;;;6.00;;
61356;SDS011;47227;46.752;23.576;2023-05-02T00:38:55;12.00;;;6.20;;
61356;SDS011;47227;46.752;23.576;2023-05-02T00:42:45;9.70;;;7.80;;
61356;SDS011;47227;46.752;23.576;2023-05-02T00:46:13;10.80;;;7.80;;
61356;SDS011;47227;46.752;23.576;2023-05-02T00:50:01;11.50;;;6.90;;
61356;SDS011;47227;46.752;23.576;2023-05-02T00:53:59;11.60;;;5.80;;
61356;SDS011;47227;46.752;23.576;2023-05-02T00:57:37;8.10;;;6.50;;
61356;SDS011;47227;46.752;23.576;2023-05-02T01:01:15;12.50;;;6.30;;
61356;SDS011;47227;46.752;23.576;2023-05-02T01:04:46;8.90;;;6.00;;
61356;SDS011;47227;46.752;23.576;2023-05-02T01:08:15;6.90;;;6.20;;
61356;SDS011;47227;46.752;23.576;2023-05-02T01:11:47;11.70;;;6.40;;
61356;SDS011;47227;46.752;23.576;2023-05-02T01:15:16;8.60;;;6.20;;
61356;SDS011;47227;46.752;23.576;2023-05-02T01:18:48;6.40;;;5.50;;
61356;SDS011;47227;46.752;23.576;2023-05-02T01:22:17;15.00;;;6.40;;
61356;SDS011;47227;46.752;23.576;2023-05-02T01:25:51;8.90;;;6.90;;
61356;SDS011;47227;46.752;23.576;2023-05-02T01:29:07;11.30;;;7.70;;
61356;SDS011;47227;46.752;23.576;2023-05-02T01:32:58;13.80;;;7.30;;
61356;SDS011;47227;46.752;23.576;2023-05-02T01:36:32;13.20;;;6.20;;
61356;SDS011;47227;46.752;23.576;2023-05-02T01:40:01;7.30;;;5.70;;
61356;SDS011;47227;46.752;23.576;2023-05-02T01:43:34;9.30;;;5.80;;
61356;SDS011;47227;46.752;23.576;2023-05-02T01:47:08;10.30;;;5.80;;
61356;SDS011;47227;46.752;23.576;2023-05-02T01:50:34;9.40;;;5.80;;
61356;SDS011;47227;46.752;23.576;2023-05-02T01:54:17;8.70;;;5.80;;
61356;SDS011;47227;46.752;23.576;2023-05-02T01:57:54;16.40;;;6.60;;
61356;SDS011;47227;46.752;23.576;2023-05-02T02:01:23;6.20;;;5.50;;
61356;SDS011;47227;46.752;23.576;2023-05-02T02:04:58;7.00;;;5.70;;
61356;SDS011;47227;46.752;23.576;2023-05-02T02:08:29;9.20;;;6.00;;
61356;SDS011;47227;46.752;23.576;2023-05-02T02:12:05;7.10;;;5.50;;
61356;SDS011;47227;46.752;23.576;2023-05-02T02:15:34;5.90;;;4.70;;
61356;SDS011;47227;46.752;23.576;2023-05-02T02:19:09;7.00;;;5.20;;
61356;SDS011;47227;46.752;23.576;2023-05-02T02:22:41;7.90;;;6.10;;
61356;SDS011;47227;46.752;23.576;2023-05-02T02:26:17;11.30;;;6.80;;
61356;SDS011;47227;46.752;23.576;2023-05-02T02:29:50;8.50;;;6.30;;
61356;SDS011;47227;46.752;23.576;2023-05-02T02:33:28;9.70;;;6.00;;
61356;SDS011;47227;46.752;23.576;2023-05-02T02:36:57;9.00;;;6.20;;
61356;SDS011;47227;46.752;23.576;2023-05-02T02:40:33;8.80;;;5.90;;
61356;SDS011;47227;46.752;23.576;2023-05-02T02:44:20;6.60;;;5.30;;
61356;SDS011;47227;46.752;23.576;2023-05-02T02:51:30;9.80;;;6.10;;
61356;SDS011;47227;46.752;23.576;2023-05-02T02:54:58;11.40;;;6.50;;
61356;SDS011;47227;46.752;23.576;2023-05-02T02:58:14;13.70;;;7.00;;
61356;SDS011;47227;46.752;23.576;2023-05-02T03:01:42;14.30;;;7.40;;
61356;SDS011;47227;46.752;23.576;2023-05-02T03:05:17;14.00;;;7.40;;
61356;SDS011;47227;46.752;23.576;2023-05-02T03:08:51;13.10;;;7.60;;
61356;SDS011;47227;46.752;23.576;2023-05-02T03:12:23;16.90;;;7.50;;
61356;SDS011;47227;46.752;23.576;2023-05-02T03:16:34;11.50;;;6.90;;
61356;SDS011;47227;46.752;23.576;2023-05-02T03:20:00;12.70;;;7.80;;
61356;SDS011;47227;46.752;23.576;2023-05-02T03:23:34;16.00;;;7.80;;
61356;SDS011;47227;46.752;23.576;2023-05-02T03:27:09;11.80;;;7.30;;
61356;SDS011;47227;46.752;23.576;2023-05-02T03:30:50;10.60;;;7.80;;
61356;SDS011;47227;46.752;23.576;2023-05-02T03:34:29;23.60;;;8.40;;
61356;SDS011;47227;46.752;23.576;2023-05-02T03:38:03;15.00;;;7.30;;
61356;SDS011;47227;46.752;23.576;2023-05-02T03:41:39;11.40;;;7.30;;
61356;SDS011;47227;46.752;23.576;2023-05-02T03:45:38;19.30;;;7.40;;
61356;SDS011;47227;46.752;23.576;2023-05-02T03:49:17;10.80;;;7.90;;
61356;SDS011;47227;46.752;23.576;2023-05-02T03:52:53;10.40;;;7.80;;
61356;SDS011;47227;46.752;23.576;2023-05-02T03:56:26;31.60;;;9.60;;
61356;SDS011;47227;46.752;23.576;2023-05-02T03:59:59;17.80;;;9.10;;
61356;SDS011;47227;46.752;23.576;2023-05-02T04:03:46;10.40;;;8.00;;
61356;SDS011;47227;46.752;23.576;2023-05-02T04:07:23;13.60;;;8.40;;
61356;SDS011;47227;46.752;23.576;2023-05-02T04:10:54;11.20;;;7.60;;
61356;SDS011;47227;46.752;23.576;2023-05-02T04:14:39;8.40;;;6.40;;
61356;SDS011;47227;46.752;23.576;2023-05-02T04:18:09;16.80;;;8.00;;
61356;SDS011;47227;46.752;23.576;2023-05-02T04:21:51;21.90;;;9.30;;
61356;SDS011;47227;46.752;23.576;2023-05-02T04:25:25;17.40;;;8.60;;
61356;SDS011;47227;46.752;23.576;2023-05-02T04:28:57;22.90;;;9.30;;
61356;SDS011;47227;46.752;23.576;2023-05-02T04:32:43;31.40;;;9.60;;
61356;SDS011;47227;46.752;23.576;2023-05-02T04:36:12;54.30;;;11.30;;
61356;SDS011;47227;46.752;23.576;2023-05-02T04:39:45;33.20;;;10.20;;
61356;SDS011;47227;46.752;23.576;2023-05-02T04:43:22;14.10;;;8.40;;
61356;SDS011;47227;46.752;23.576;2023-05-02T04:47:10;13.50;;;7.00;;
61356;SDS011;47227;46.752;23.576;2023-05-02T04:51:02;33.10;;;9.80;;
61356;SDS011;47227;46.752;23.576;2023-05-02T04:54:32;14.60;;;9.30;;
61356;SDS011;47227;46.752;23.576;2023-05-02T04:57:01;14.10;;;8.50;;
61356;SDS011;47227;46.752;23.576;2023-05-02T04:59:32;17.40;;;9.20;;
61356;SDS011;47227;46.752;23.576;2023-05-02T05:02:02;15.10;;;8.70;;
61356;SDS011;47227;46.752;23.576;2023-05-02T05:04:30;20.60;;;8.80;;
61356;SDS011;47227;46.752;23.576;2023-05-02T05:07:02;23.10;;;10.60;;
61356;SDS011;47227;46.752;23.576;2023-05-02T05:09:31;25.40;;;10.50;;
61356;SDS011;47227;46.752;23.576;2023-05-02T05:11:59;25.70;;;10.70;;
61356;SDS011;47227;46.752;23.576;2023-05-02T05:14:29;28.40;;;10.30;;
61356;SDS011;47227;46.752;23.576;2023-05-02T05:16:58;18.10;;;9.70;;
61356;SDS011;47227;46.752;23.576;2023-05-02T05:19:26;15.80;;;9.80;;
61356;SDS011;47227;46.752;23.576;2023-05-02T05:21:56;19.90;;;10.20;;
61356;SDS011;47227;46.752;23.576;2023-05-02T05:24:23;15.10;;;10.20;;
61356;SDS011;47227;46.752;23.576;2023-05-02T05:26:53;19.80;;;10.90;;
61356;SDS011;47227;46.752;23.576;2023-05-02T05:29:22;20.10;;;10.70;;
61356;SDS011;47227;46.752;23.576;2023-05-02T05:31:50;20.20;;;11.10;;
61356;SDS011;47227;46.752;23.576;2023-05-02T05:34:20;17.40;;;11.10;;
61356;SDS011;47227;46.752;23.576;2023-05-02T05:36:50;19.70;;;11.70;;
61356;SDS011;47227;46.752;23.576;2023-05-02T05:39:19;31.40;;;12.20;;
61356;SDS011;47227;46.752;23.576;2023-05-02T05:41:49;37.90;;;12.60;;
61356;SDS011;47227;46.752;23.576;2023-05-02T05:44:17;33.00;;;11.60;;
61356;SDS011;47227;46.752;23.576;2023-05-02T05:46:48;26.30;;;10.80;;
61356;SDS011;47227;46.752;23.576;2023-05-02T05:49:17;22.20;;;11.30;;
61356;SDS011;47227;46.752;23.576;2023-05-02T05:51:47;34.50;;;13.40;;
61356;SDS011;47227;46.752;23.576;2023-05-02T05:54:16;34.10;;;14.40;;
61356;SDS011;47227;46.752;23.576;2023-05-02T05:56:45;36.90;;;15.80;;
61356;SDS011;47227;46.752;23.576;2023-05-02T05:59:16;27.70;;;14.00;;
61356;SDS011;47227;46.752;23.576;2023-05-02T06:01:45;34.00;;;14.40;;
61356;SDS011;47227;46.752;23.576;2023-05-02T06:05:01;34.20;;;14.60;;
61356;SDS011;47227;46.752;23.576;2023-05-02T06:08:34;36.20;;;14.10;;
61356;SDS011;47227;46.752;23.576;2023-05-02T06:11:51;29.30;;;13.90;;
61356;SDS011;47227;46.752;23.576;2023-05-02T06:14:31;28.60;;;13.00;;
61356;SDS011;47227;46.752;23.576;2023-05-02T06:17:53;22.70;;;12.00;;
61356;SDS011;47227;46.752;23.576;2023-05-02T06:20:35;24.60;;;13.00;;
61356;SDS011;47227;46.752;23.576;2023-05-02T06:23:37;21.50;;;12.40;;
61356;SDS011;47227;46.752;23.576;2023-05-02T06:26:09;22.80;;;12.60;;
61356;SDS011;47227;46.752;23.576;2023-05-02T06:28:49;31.90;;;12.00;;
61356;SDS011;47227;46.752;23.576;2023-05-02T06:31:49;26.90;;;12.20;;
61356;SDS011;47227;46.752;23.576;2023-05-02T06:35:33;28.90;;;12.80;;
61356;SDS011;47227;46.752;23.576;2023-05-02T06:38:52;23.60;;;11.80;;
61356;SDS011;47227;46.752;23.576;2023-05-02T06:41:55;22.10;;;11.60;;
61356;SDS011;47227;46.752;23.576;2023-05-02T06:48:31;23.50;;;11.90;;
61356;SDS011;47227;46.752;23.576;2023-05-02T06:51:47;24.80;;;11.80;;
61356;SDS011;47227;46.752;23.576;2023-05-02T06:54:57;19.50;;;11.10;;
61356;SDS011;47227;46.752;23.576;2023-05-02T06:58:48;14.50;;;10.10;;
61356;SDS011;47227;46.752;23.576;2023-05-02T07:01:53;22.00;;;11.10;;
61356;SDS011;47227;46.752;23.576;2023-05-02T07:05:30;26.40;;;9.20;;
61356;SDS011;47227;46.752;23.576;2023-05-02T07:14:21;62.00;;;10.30;;
61356;SDS011;47227;46.752;23.576;2023-05-02T07:17:53;15.80;;;8.20;;
61356;SDS011;47227;46.752;23.576;2023-05-02T07:21:20;12.80;;;8.10;;
61356;SDS011;47227;46.752;23.576;2023-05-02T07:24:28;11.80;;;7.30;;
61356;SDS011;47227;46.752;23.576;2023-05-02T07:27:23;13.70;;;7.40;;
61356;SDS011;47227;46.752;23.576;2023-05-02T07:30:17;11.00;;;6.80;;
61356;SDS011;47227;46.752;23.576;2023-05-02T07:33:04;5.80;;;3.70;;
61356;SDS011;47227;46.752;23.576;2023-05-02T07:36:12;9.00;;;2.80;;
61356;SDS011;47227;46.752;23.576;2023-05-02T07:55:11;3.50;;;2.30;;
61356;SDS011;47227;46.752;23.576;2023-05-02T07:58:52;3.70;;;2.20;;
61356;SDS011;47227;46.752;23.576;2023-05-02T08:06:46;4.20;;;3.00;;
61356;SDS011;47227;46.752;23.576;2023-05-02T08:09:15;3.00;;;2.70;;
61356;SDS011;47227;46.752;23.576;2023-05-02T08:12:06;10.40;;;3.40;;
61356;SDS011;47227;46.752;23.576;2023-05-02T08:15:23;8.50;;;2.90;;
61356;SDS011;47227;46.752;23.576;2023-05-02T08:17:53;4.50;;;2.70;;
61356;SDS011;47227;46.752;23.576;2023-05-02T08:20:25;6.50;;;2.80;;
61356;SDS011;47227;46.752;23.576;2023-05-02T08:23:13;8.50;;;3.20;;
61356;SDS011;47227;46.752;23.576;2023-05-02T08:25:53;7.90;;;2.80;;
61356;SDS011;47227;46.752;23.576;2023-05-02T08:28:37;8.00;;;3.10;;
61356;SDS011;47227;46.752;23.576;2023-05-02T08:31:08;7.00;;;2.60;;
61356;SDS011;47227;46.752;23.576;2023-05-02T08:33:45;4.60;;;2.30;;
61356;SDS011;47227;46.752;23.576;2023-05-02T08:36:19;3.10;;;2.50;;
61356;SDS011;47227;46.752;23.576;2023-05-02T08:38:51;6.60;;;2.90;;
61356;SDS011;47227;46.752;23.576;2023-05-02T08:41:24;4.50;;;2.80;;
61356;SDS011;47227;46.752;23.576;2023-05-02T08:44:01;3.30;;;2.80;;
61356;SDS011;47227;46.752;23.576;2023-05-02T08:46:59;3.90;;;3.20;;
61356;SDS011;47227;46.752;23.576;2023-05-02T08:49:41;9.00;;;3.60;;
61356;SDS011;47227;46.752;23.576;2023-05-02T08:52:11;13.80;;;3.10;;
61356;SDS011;47227;46.752;23.576;2023-05-02T08:54:47;11.80;;;2.80;;
61356;SDS011;47227;46.752;23.576;2023-05-02T08:57:29;6.30;;;3.20;;
61356;SDS011;47227;46.752;23.576;2023-05-02T09:00:00;7.30;;;3.00;;
61356;SDS011;47227;46.752;23.576;2023-05-02T09:02:37;5.50;;;2.70;;
61356;SDS011;47227;46.752;23.576;2023-05-02T09:06:39;4.40;;;3.00;;
61356;SDS011;47227;46.752;23.576;2023-05-02T09:10:08;4.30;;;2.80;;
61356;SDS011;47227;46.752;23.576;2023-05-02T09:13:47;4.70;;;2.90;;
61356;SDS011;47227;46.752;23.576;2023-05-02T09:17:10;6.80;;;3.00;;
61356;SDS011;47227;46.752;23.576;2023-05-02T09:20:18;3.90;;;2.80;;
61356;SDS011;47227;46.752;23.576;2023-05-02T09:23:16;4.50;;;2.70;;
61356;SDS011;47227;46.752;23.576;2023-05-02T09:25:49;4.80;;;2.80;;
61356;SDS011;47227;46.752;23.576;2023-05-02T09:28:37;8.30;;;2.70;;
61356;SDS011;47227;46.752;23.576;2023-05-02T09:35:04;5.60;;;2.60;;
61356;SDS011;47227;46.752;23.576;2023-05-02T09:41:14;6.50;;;2.60;;
61356;SDS011;47227;46.752;23.576;2023-05-02T09:44:08;5.20;;;2.40;;
61356;SDS011;47227;46.752;23.576;2023-05-02T09:46:52;2.60;;;2.40;;
61356;SDS011;47227;46.752;23.576;2023-05-02T09:49:56;5.80;;;2.50;;
61356;SDS011;47227;46.752;23.576;2023-05-02T09:53:03;7.20;;;2.50;;
61356;SDS011;47227;46.752;23.576;2023-05-02T09:56:03;10.30;;;2.70;;
61356;SDS011;47227;46.752;23.576;2023-05-02T09:58:40;2.60;;;2.40;;
61356;SDS011;47227;46.752;23.576;2023-05-02T10:01:53;5.30;;;2.90;;
61356;SDS011;47227;46.752;23.576;2023-05-02T10:04:39;8.60;;;2.10;;
61356;SDS011;47227;46.752;23.576;2023-05-02T10:07:09;4.70;;;2.20;;
61356;SDS011;47227;46.752;23.576;2023-05-02T10:09:43;5.30;;;1.90;;
61356;SDS011;47227;46.752;23.576;2023-05-02T10:12:13;8.50;;;2.40;;
61356;SDS011;47227;46.752;23.576;2023-05-02T10:14:47;4.90;;;2.40;;
61356;SDS011;47227;46.752;23.576;2023-05-02T10:18:20;4.00;;;2.20;;
61356;SDS011;47227;46.752;23.576;2023-05-02T10:21:59;3.60;;;2.30;;
61356;SDS011;47227;46.752;23.576;2023-05-02T10:25:09;10.60;;;1.80;;
61356;SDS011;47227;46.752;23.576;2023-05-02T10:28:41;6.90;;;1.80;;
61356;SDS011;47227;46.752;23.576;2023-05-02T10:32:26;4.80;;;1.60;;
61356;SDS011;47227;46.752;23.576;2023-05-02T10:36:15;8.20;;;1.90;;
61356;SDS011;47227;46.752;23.576;2023-05-02T10:39:58;7.70;;;2.10;;
61356;SDS011;47227;46.752;23.576;2023-05-02T10:43:38;2.50;;;1.90;;
61356;SDS011;47227;46.752;23.576;2023-05-02T10:47:23;5.20;;;1.80;;
61356;SDS011;47227;46.752;23.576;2023-05-02T10:51:01;4.80;;;1.90;;
61356;SDS011;47227;46.752;23.576;2023-05-02T10:54:48;2.30;;;1.50;;
61356;SDS011;47227;46.752;23.576;2023-05-02T10:59:25;6.60;;;1.90;;
61356;SDS011;47227;46.752;23.576;2023-05-02T11:02:50;3.90;;;1.60;;
61356;SDS011;47227;46.752;23.576;2023-05-02T11:05:26;4.70;;;1.70;;
61356;SDS011;47227;46.752;23.576;2023-05-02T11:08:37;2.70;;;1.30;;
61356;SDS011;47227;46.752;23.576;2023-05-02T11:14:53;1.50;;;1.30;;
61356;SDS011;47227;46.752;23.576;2023-05-02T11:17:59;2.80;;;1.30;;
61356;SDS011;47227;46.752;23.576;2023-05-02T11:20:52;5.10;;;1.40;;
61356;SDS011;47227;46.752;23.576;2023-05-02T11:30:35;5.00;;;1.80;;
61356;SDS011;47227;46.752;23.576;2023-05-02T11:33:10;3.60;;;1.50;;
61356;SDS011;47227;46.752;23.576;2023-05-02T11:35:42;3.20;;;1.40;;
61356;SDS011;47227;46.752;23.576;2023-05-02T11:38:20;4.00;;;1.50;;
61356;SDS011;47227;46.752;23.576;2023-05-02T11:40:53;3.60;;;1.30;;
61356;SDS011;47227;46.752;23.576;2023-05-02T11:43:29;2.30;;;1.40;;
61356;SDS011;47227;46.752;23.576;2023-05-02T11:46:09;1.70;;;1.10;;
61356;SDS011;47227;46.752;23.576;2023-05-02T11:48:44;3.70;;;1.60;;
61356;SDS011;47227;46.752;23.576;2023-05-02T11:51:28;4.40;;;1.80;;
61356;SDS011;47227;46.752;23.576;2023-05-02T11:54:08;4.70;;;1.30;;
61356;SDS011;47227;46.752;23.576;2023-05-02T11:57:14;6.50;;;1.90;;
61356;SDS011;47227;46.752;23.576;2023-05-02T11:59:59;5.60;;;1.50;;
61356;SDS011;47227;46.752;23.576;2023-05-02T12:02:56;7.00;;;2.00;;
61356;SDS011;47227;46.752;23.576;2023-05-02T12:05:32;2.20;;;1.50;;
61356;SDS011;47227;46.752;23.576;2023-05-02T12:09:13;5.30;;;1.70;;
61356;SDS011;47227;46.752;23.576;2023-05-02T12:12:18;4.00;;;1.60;;
61356;SDS011;47227;46.752;23.576;2023-05-02T12:19:44;3.90;;;1.90;;
61356;SDS011;47227;46.752;23.576;2023-05-02T12:30:41;6.30;;;1.50;;
61356;SDS011;47227;46.752;23.576;2023-05-02T12:34:32;1.90;;;1.60;;
61356;SDS011;47227;46.752;23.576;2023-05-02T12:37:46;4.50;;;1.60;;
61356;SDS011;47227;46.752;23.576;2023-05-02T12:40:19;4.00;;;1.70;;
61356;SDS011;47227;46.752;23.576;2023-05-02T12:43:00;3.80;;;1.70;;
61356;SDS011;47227;46.752;23.576;2023-05-02T12:45:34;4.10;;;1.90;;
61356;SDS011;47227;46.752;23.576;2023-05-02T12:48:19;5.50;;;1.80;;
61356;SDS011;47227;46.752;23.576;2023-05-02T12:51:01;2.60;;;1.70;;
61356;SDS011;47227;46.752;23.576;2023-05-02T12:53:48;4.40;;;1.70;;
61356;SDS011;47227;46.752;23.576;2023-05-02T12:56:17;3.10;;;1.80;;
61356;SDS011;47227;46.752;23.576;2023-05-02T12:58:46;3.60;;;2.00;;
61356;SDS011;47227;46.752;23.576;2023-05-02T13:01:15;2.30;;;2.00;;
61356;SDS011;47227;46.752;23.576;2023-05-02T13:03:44;3.70;;;1.80;;
61356;SDS011;47227;46.752;23.576;2023-05-02T13:06:12;4.10;;;2.10;;
61356;SDS011;47227;46.752;23.576;2023-05-02T13:08:40;2.30;;;1.80;;
61356;SDS011;47227;46.752;23.576;2023-05-02T13:11:09;2.00;;;1.60;;
61356;SDS011;47227;46.752;23.576;2023-05-02T13:13:40;6.70;;;1.60;;
61356;SDS011;47227;46.752;23.576;2023-05-02T13:16:10;6.60;;;1.80;;
61356;SDS011;47227;46.752;23.576;2023-05-02T13:18:38;1.90;;;1.60;;
61356;SDS011;47227;46.752;23.576;2023-05-02T13:21:07;5.60;;;2.00;;
61356;SDS011;47227;46.752;23.576;2023-05-02T13:23:36;5.10;;;1.90;;
61356;SDS011;47227;46.752;23.576;2023-05-02T13:26:06;6.10;;;1.60;;
61356;SDS011;47227;46.752;23.576;2023-05-02T13:28:33;1.80;;;1.60;;
61356;SDS011;47227;46.752;23.576;2023-05-02T13:31:04;3.80;;;1.70;;
61356;SDS011;47227;46.752;23.576;2023-05-02T13:33:32;2.20;;;1.50;;
61356;SDS011;47227;46.752;23.576;2023-05-02T13:36:02;1.70;;;1.50;;
61356;SDS011;47227;46.752;23.576;2023-05-02T13:38:30;3.60;;;1.60;;
61356;SDS011;47227;46.752;23.576;2023-05-02T13:41:00;3.80;;;1.60;;
61356;SDS011;47227;46.752;23.576;2023-05-02T13:43:34;5.00;;;1.50;;
61356;SDS011;47227;46.752;23.576;2023-05-02T13:46:34;4.80;;;1.70;;
61356;SDS011;47227;46.752;23.576;2023-05-02T13:49:04;1.70;;;1.40;;
61356;SDS011;47227;46.752;23.576;2023-05-02T13:51:32;1.60;;;1.20;;
61356;SDS011;47227;46.752;23.576;2023-05-02T13:54:01;2.00;;;1.70;;
61356;SDS011;47227;46.752;23.576;2023-05-02T13:56:29;8.70;;;2.30;;
61356;SDS011;47227;46.752;23.576;2023-05-02T13:59:00;5.20;;;1.70;;
61356;SDS011;47227;46.752;23.576;2023-05-02T14:01:28;3.70;;;1.70;;
61356;SDS011;47227;46.752;23.576;2023-05-02T14:04:22;4.50;;;1.90;;
61356;SDS011;47227;46.752;23.576;2023-05-02T14:07:43;5.20;;;1.50;;
61356;SDS011;47227;46.752;23.576;2023-05-02T14:10:33;1.90;;;1.20;;
61356;SDS011;47227;46.752;23.576;2023-05-02T14:14:02;2.90;;;1.40;;
61356;SDS011;47227;46.752;23.576;2023-05-02T14:16:51;5.90;;;1.60;;
61356;SDS011;47227;46.752;23.576;2023-05-02T14:19:23;2.90;;;1.50;;
61356;SDS011;47227;46.752;23.576;2023-05-02T14:21:56;4.50;;;1.50;;
61356;SDS011;47227;46.752;23.576;2023-05-02T14:25:26;2.60;;;1.30;;
61356;SDS011;47227;46.752;23.576;2023-05-02T14:30:50;11.10;;;1.90;;
61356;SDS011;47227;46.752;23.576;2023-05-02T14:34:27;3.00;;;1.40;;
61356;SDS011;47227;46.752;23.576;2023-05-02T14:37:04;3.20;;;1.40;;
61356;SDS011;47227;46.752;23.576;2023-05-02T14:40:08;9.50;;;1.70;;
61356;SDS011;47227;46.752;23.576;2023-05-02T14:43:14;6.00;;;1.40;;
61356;SDS011;47227;46.752;23.576;2023-05-02T14:45:43;3.30;;;1.40;;
61356;SDS011;47227;46.752;23.576;2023-05-02T14:48:35;5.80;;;1.60;;
61356;SDS011;47227;46.752;23.576;2023-05-02T14:52:00;3.00;;;1.50;;
61356;SDS011;47227;46.752;23.576;2023-05-02T14:55:45;3.00;;;1.40;;
61356;SDS011;47227;46.752;23.576;2023-05-02T14:59:09;7.00;;;1.80;;
61356;SDS011;47227;46.752;23.576;2023-05-02T15:01:50;7.00;;;1.60;;
61356;SDS011;47227;46.752;23.576;2023-05-02T15:04:23;3.50;;;1.30;;
61356;SDS011;47227;46.752;23.576;2023-05-02T15:06:54;2.90;;;1.30;;
61356;SDS011;47227;46.752;23.576;2023-05-02T15:09:23;2.40;;;1.30;;
61356;SDS011;47227;46.752;23.576;2023-05-02T15:11:55;3.60;;;1.40;;
61356;SDS011;47227;46.752;23.576;2023-05-02T15:14:23;1.60;;;1.10;;
61356;SDS011;47227;46.752;23.576;2023-05-02T15:16:51;1.80;;;1.60;;
61356;SDS011;47227;46.752;23.576;2023-05-02T15:19:19;4.00;;;1.90;;
61356;SDS011;47227;46.752;23.576;2023-05-02T15:21:50;3.10;;;1.40;;
61356;SDS011;47227;46.752;23.576;2023-05-02T15:24:19;3.00;;;1.30;;
61356;SDS011;47227;46.752;23.576;2023-05-02T15:26:47;3.90;;;1.30;;
61356;SDS011;47227;46.752;23.576;2023-05-02T15:29:16;4.30;;;1.60;;
61356;SDS011;47227;46.752;23.576;2023-05-02T15:31:44;2.00;;;1.30;;
61356;SDS011;47227;46.752;23.576;2023-05-02T15:34:12;2.90;;;1.30;;
61356;SDS011;47227;46.752;23.576;2023-05-02T15:36:40;2.00;;;1.20;;
61356;SDS011;47227;46.752;23.576;2023-05-02T15:39:09;2.90;;;1.40;;
61356;SDS011;47227;46.752;23.576;2023-05-02T15:41:37;2.20;;;1.30;;
61356;SDS011;47227;46.752;23.576;2023-05-02T15:44:16;5.40;;;1.60;;
61356;SDS011;47227;46.752;23.576;2023-05-02T15:46:43;4.00;;;1.30;;
61356;SDS011;47227;46.752;23.576;2023-05-02T15:49:13;1.50;;;1.30;;
61356;SDS011;47227;46.752;23.576;2023-05-02T15:51:41;2.60;;;1.60;;
61356;SDS011;47227;46.752;23.576;2023-05-02T15:54:10;4.60;;;1.50;;
61356;SDS011;47227;46.752;23.576;2023-05-02T15:56:37;1.90;;;1.20;;
61356;SDS011;47227;46.752;23.576;2023-05-02T15:59:05;5.30;;;1.30;;
61356;SDS011;47227;46.752;23.576;2023-05-02T16:01:33;3.90;;;1.30;;
61356;SDS011;47227;46.752;23.576;2023-05-02T16:04:01;1.40;;;1.20;;
61356;SDS011;47227;46.752;23.576;2023-05-02T16:06:32;3.20;;;1.20;;
61356;SDS011;47227;46.752;23.576;2023-05-02T16:09:00;1.50;;;1.20;;
61356;SDS011;47227;46.752;23.576;2023-05-02T16:11:30;1.50;;;1.20;;
61356;SDS011;47227;46.752;23.576;2023-05-02T16:13:59;2.60;;;1.50;;
61356;SDS011;47227;46.752;23.576;2023-05-02T16:16:27;2.30;;;1.40;;
61356;SDS011;47227;46.752;23.576;2023-05-02T16:18:55;4.10;;;1.40;;
61356;SDS011;47227;46.752;23.576;2023-05-02T16:21:24;2.00;;;1.40;;
61356;SDS011;47227;46.752;23.576;2023-05-02T16:23:52;1.80;;;1.20;;
61356;SDS011;47227;46.752;23.576;2023-05-02T16:26:20;5.30;;;1.50;;
61356;SDS011;47227;46.752;23.576;2023-05-02T16:28:50;4.50;;;1.90;;
61356;SDS011;47227;46.752;23.576;2023-05-02T16:31:31;3.20;;;2.00;;
61356;SDS011;47227;46.752;23.576;2023-05-02T16:33:59;3.70;;;1.70;;
61356;SDS011;47227;46.752;23.576;2023-05-02T16:36:27;4.30;;;1.60;;
61356;SDS011;47227;46.752;23.576;2023-05-02T16:38:56;1.90;;;1.40;;
61356;SDS011;47227;46.752;23.576;2023-05-02T16:41:24;9.40;;;1.50;;
61356;SDS011;47227;46.752;23.576;2023-05-02T16:43:52;2.20;;;1.20;;
61356;SDS011;47227;46.752;23.576;2023-05-02T16:46:20;3.10;;;1.50;;
61356;SDS011;47227;46.752;23.576;2023-05-02T16:48:48;5.40;;;1.50;;
61356;SDS011;47227;46.752;23.576;2023-05-02T16:51:16;5.20;;;1.60;;
61356;SDS011;47227;46.752;23.576;2023-05-02T16:53:44;3.80;;;1.80;;
61356;SDS011;47227;46.752;23.576;2023-05-02T16:56:13;4.00;;;1.70;;
61356;SDS011;47227;46.752;23.576;2023-05-02T16:58:40;4.80;;;1.90;;
61356;SDS011;47227;46.752;23.576;2023-05-02T17:01:08;2.80;;;1.50;;
61356;SDS011;47227;46.752;23.576;2023-05-02T17:03:38;3.70;;;1.40;;
61356;SDS011;47227;46.752;23.576;2023-05-02T17:06:07;2.00;;;1.70;;
61356;SDS011;47227;46.752;23.576;2023-05-02T17:08:35;4.10;;;1.60;;
61356;SDS011;47227;46.752;23.576;2023-05-02T17:11:03;1.70;;;1.50;;
61356;SDS011;47227;46.752;23.576;2023-05-02T17:13:32;3.70;;;1.80;;
61356;SDS011;47227;46.752;23.576;2023-05-02T17:16:01;1.60;;;1.40;;
61356;SDS011;47227;46.752;23.576;2023-05-02T17:18:29;4.40;;;1.60;;
61356;SDS011;47227;46.752;23.576;2023-05-02T17:20:57;7.80;;;1.80;;
61356;SDS011;47227;46.752;23.576;2023-05-02T17:23:27;7.50;;;2.10;;
61356;SDS011;47227;46.752;23.576;2023-05-02T17:25:56;3.40;;;1.80;;
61356;SDS011;47227;46.752;23.576;2023-05-02T17:28:24;6.10;;;1.80;;
61356;SDS011;47227;46.752;23.576;2023-05-02T17:30:52;2.20;;;2.00;;
61356;SDS011;47227;46.752;23.576;2023-05-02T17:33:22;4.90;;;2.00;;
61356;SDS011;47227;46.752;23.576;2023-05-02T17:35:51;4.70;;;1.70;;
61356;SDS011;47227;46.752;23.576;2023-05-02T17:38:20;7.70;;;1.70;;
61356;SDS011;47227;46.752;23.576;2023-05-02T17:40:48;3.90;;;1.80;;
61356;SDS011;47227;46.752;23.576;2023-05-02T17:43:16;5.50;;;1.70;;
61356;SDS011;47227;46.752;23.576;2023-05-02T17:45:44;6.50;;;1.80;;
61356;SDS011;47227;46.752;23.576;2023-05-02T17:48:12;2.20;;;1.90;;
61356;SDS011;47227;46.752;23.576;2023-05-02T17:50:40;2.30;;;1.60;;
61356;SDS011;47227;46.752;23.576;2023-05-02T17:53:08;4.10;;;1.40;;
61356;SDS011;47227;46.752;23.576;2023-05-02T17:55:36;8.20;;;1.90;;
61356;SDS011;47227;46.752;23.576;2023-05-02T17:58:05;2.60;;;1.60;;
61356;SDS011;47227;46.752;23.576;2023-05-02T18:00:34;4.80;;;1.40;;
61356;SDS011;47227;46.752;23.576;2023-05-02T18:03:02;3.30;;;1.60;;
61356;SDS011;47227;46.752;23.576;2023-05-02T18:05:35;5.30;;;1.40;;
61356;SDS011;47227;46.752;23.576;2023-05-02T18:08:05;5.20;;;1.80;;
61356;SDS011;47227;46.752;23.576;2023-05-02T18:10:36;5.10;;;1.70;;
61356;SDS011;47227;46.752;23.576;2023-05-02T18:13:04;5.90;;;1.70;;
61356;SDS011;47227;46.752;23.576;2023-05-02T18:15:32;4.50;;;1.50;;
61356;SDS011;47227;46.752;23.576;2023-05-02T18:18:00;4.00;;;2.00;;
61356;SDS011;47227;46.752;23.576;2023-05-02T18:20:28;5.50;;;1.70;;